sensor_id;sensor_type;location;lat;lon;timestamp;P1;durP1;ratioP1;P2;durP2;ratioP2
29030;SDS011;16122;50.236;11.734;2023-12-20T00:01:59;1.50;;;1.40;;
29030;SDS011;16122;50.236;11.734;2023-12-20T00:04:25;1.87;;;1.60;;
29030;SDS011;16122;50.236;11.734;2023-12-20T00:06:51;1.83;;;1.20;;
29030;SDS011;16122;50.236;11.734;2023-12-20T00:09:17;1.40;;;1.30;;
29030;SDS011;16122;50.236;11.734;2023-12-20T00:11:43;1.10;;;1.00;;
29030;SDS011;16122;50.236;11.734;2023-12-20T00:14:10;1.20;;;1.10;;
29030;SDS011;16122;50.236;11.734;2023-12-20T00:16:36;1.47;;;1.37;;
29030;SDS011;16122;50.236;11.734;2023-12-20T00:19:02;1.00;;;1.00;;
29030;SDS011;16122;50.236;11.734;2023-12-20T00:21:28;1.73;;;1.37;;
29030;SDS011;16122;50.236;11.734;2023-12-20T00:23:54;1.40;;;1.30;;
29030;SDS011;16122;50.236;11.734;2023-12-20T00:26:20;1.47;;;1.37;;
29030;SDS011;16122;50.236;11.734;2023-12-20T00:28:46;1.40;;;1.30;;
29030;SDS011;16122;50.236;11.734;2023-12-20T00:31:12;1.33;;;1.23;;
29030;SDS011;16122;50.236;11.734;2023-12-20T00:33:39;1.17;;;1.10;;
29030;SDS011;16122;50.236;11.734;2023-12-20T00:36:08;0.97;;;0.93;;
29030;SDS011;16122;50.236;11.734;2023-12-20T00:38:35;1.33;;;1.23;;
29030;SDS011;16122;50.236;11.734;2023-12-20T00:41:01;1.13;;;1.00;;
29030;SDS011;16122;50.236;11.734;2023-12-20T00:43:27;1.93;;;1.30;;
29030;SDS011;16122;50.236;11.734;2023-12-20T00:45:53;1.97;;;1.20;;
29030;SDS011;16122;50.236;11.734;2023-12-20T00:48:20;1.10;;;1.00;;
29030;SDS011;16122;50.236;11.734;2023-12-20T00:50:46;1.17;;;1.00;;
29030;SDS011;16122;50.236;11.734;2023-12-20T00:53:13;1.20;;;1.10;;
29030;SDS011;16122;50.236;11.734;2023-12-20T00:55:39;1.20;;;1.10;;
29030;SDS011;16122;50.236;11.734;2023-12-20T00:58:05;1.50;;;1.40;;
29030;SDS011;16122;50.236;11.734;2023-12-20T01:00:32;1.07;;;1.07;;
29030;SDS011;16122;50.236;11.734;2023-12-20T01:02:58;1.20;;;1.10;;
29030;SDS011;16122;50.236;11.734;2023-12-20T01:05:24;1.63;;;1.53;;
29030;SDS011;16122;50.236;11.734;2023-12-20T01:07:50;0.90;;;0.90;;
29030;SDS011;16122;50.236;11.734;2023-12-20T01:10:16;1.03;;;1.03;;
29030;SDS011;16122;50.236;11.734;2023-12-20T01:12:43;0.87;;;0.87;;
29030;SDS011;16122;50.236;11.734;2023-12-20T01:15:09;0.93;;;0.93;;
29030;SDS011;16122;50.236;11.734;2023-12-20T01:17:35;1.30;;;1.20;;
29030;SDS011;16122;50.236;11.734;2023-12-20T01:20:01;0.93;;;0.93;;
29030;SDS011;16122;50.236;11.734;2023-12-20T01:22:28;1.00;;;1.00;;
29030;SDS011;16122;50.236;11.734;2023-12-20T01:24:54;1.00;;;1.00;;
29030;SDS011;16122;50.236;11.734;2023-12-20T01:27:20;0.70;;;0.70;;
29030;SDS011;16122;50.236;11.734;2023-12-20T01:29:47;0.70;;;0.70;;
29030;SDS011;16122;50.236;11.734;2023-12-20T01:32:13;0.90;;;0.90;;
29030;SDS011;16122;50.236;11.734;2023-12-20T01:34:39;1.20;;;1.10;;
29030;SDS011;16122;50.236;11.734;2023-12-20T01:37:06;1.10;;;1.00;;
29030;SDS011;16122;50.236;11.734;2023-12-20T01:39:32;0.80;;;0.80;;
29030;SDS011;16122;50.236;11.734;2023-12-20T01:41:58;1.13;;;1.03;;
29030;SDS011;16122;50.236;11.734;2023-12-20T01:44:24;1.23;;;1.13;;
29030;SDS011;16122;50.236;11.734;2023-12-20T01:46:51;0.90;;;0.90;;
29030;SDS011;16122;50.236;11.734;2023-12-20T01:49:17;0.90;;;0.90;;
29030;SDS011;16122;50.236;11.734;2023-12-20T01:51:44;1.03;;;0.97;;
29030;SDS011;16122;50.236;11.734;2023-12-20T01:54:10;0.70;;;0.70;;
29030;SDS011;16122;50.236;11.734;2023-12-20T01:56:37;0.80;;;0.80;;
29030;SDS011;16122;50.236;11.734;2023-12-20T01:59:03;1.07;;;1.07;;
29030;SDS011;16122;50.236;11.734;2023-12-20T02:01:29;0.80;;;0.80;;
29030;SDS011;16122;50.236;11.734;2023-12-20T02:03:56;0.80;;;0.80;;
29030;SDS011;16122;50.236;11.734;2023-12-20T02:06:22;1.17;;;1.07;;
29030;SDS011;16122;50.236;11.734;2023-12-20T02:08:49;0.90;;;0.90;;
29030;SDS011;16122;50.236;11.734;2023-12-20T02:11:16;0.87;;;0.87;;
29030;SDS011;16122;50.236;11.734;2023-12-20T02:13:42;0.90;;;0.90;;
29030;SDS011;16122;50.236;11.734;2023-12-20T02:16:08;0.77;;;0.77;;
29030;SDS011;16122;50.236;11.734;2023-12-20T02:18:35;1.10;;;1.00;;
29030;SDS011;16122;50.236;11.734;2023-12-20T02:21:03;0.80;;;0.80;;
29030;SDS011;16122;50.236;11.734;2023-12-20T02:23:30;0.70;;;0.70;;
29030;SDS011;16122;50.236;11.734;2023-12-20T02:25:56;0.90;;;0.90;;
29030;SDS011;16122;50.236;11.734;2023-12-20T02:28:22;1.10;;;1.00;;
29030;SDS011;16122;50.236;11.734;2023-12-20T02:30:48;0.70;;;0.70;;
29030;SDS011;16122;50.236;11.734;2023-12-20T02:33:14;0.70;;;0.70;;
29030;SDS011;16122;50.236;11.734;2023-12-20T02:35:41;0.70;;;0.70;;
29030;SDS011;16122;50.236;11.734;2023-12-20T02:38:07;0.80;;;0.80;;
29030;SDS011;16122;50.236;11.734;2023-12-20T02:40:33;0.70;;;0.70;;
29030;SDS011;16122;50.236;11.734;2023-12-20T02:42:59;1.07;;;0.80;;
29030;SDS011;16122;50.236;11.734;2023-12-20T02:45:26;1.00;;;0.90;;
29030;SDS011;16122;50.236;11.734;2023-12-20T02:47:52;0.63;;;0.63;;
29030;SDS011;16122;50.236;11.734;2023-12-20T02:50:18;1.13;;;0.60;;
29030;SDS011;16122;50.236;11.734;2023-12-20T02:52:45;0.70;;;0.70;;
29030;SDS011;16122;50.236;11.734;2023-12-20T02:55:11;0.90;;;0.70;;
29030;SDS011;16122;50.236;11.734;2023-12-20T02:57:37;0.73;;;0.73;;
29030;SDS011;16122;50.236;11.734;2023-12-20T03:00:08;0.83;;;0.80;;
29030;SDS011;16122;50.236;11.734;2023-12-20T03:02:36;0.60;;;0.60;;
29030;SDS011;16122;50.236;11.734;2023-12-20T03:05:02;0.70;;;0.70;;
29030;SDS011;16122;50.236;11.734;2023-12-20T03:07:29;0.70;;;0.70;;
29030;SDS011;16122;50.236;11.734;2023-12-20T03:09:55;0.80;;;0.80;;
29030;SDS011;16122;50.236;11.734;2023-12-20T03:12:21;3.03;;;1.80;;
29030;SDS011;16122;50.236;11.734;2023-12-20T03:14:48;0.60;;;0.60;;
29030;SDS011;16122;50.236;11.734;2023-12-20T03:17:14;0.60;;;0.60;;
29030;SDS011;16122;50.236;11.734;2023-12-20T03:19:40;0.70;;;0.70;;
29030;SDS011;16122;50.236;11.734;2023-12-20T03:22:06;0.80;;;0.80;;
29030;SDS011;16122;50.236;11.734;2023-12-20T03:24:33;0.70;;;0.70;;
29030;SDS011;16122;50.236;11.734;2023-12-20T03:26:59;0.73;;;0.73;;
29030;SDS011;16122;50.236;11.734;2023-12-20T03:29:25;0.70;;;0.70;;
29030;SDS011;16122;50.236;11.734;2023-12-20T03:31:51;0.70;;;0.70;;
29030;SDS011;16122;50.236;11.734;2023-12-20T03:34:17;0.60;;;0.60;;
29030;SDS011;16122;50.236;11.734;2023-12-20T03:36:43;0.70;;;0.70;;
29030;SDS011;16122;50.236;11.734;2023-12-20T03:39:12;0.97;;;0.60;;
29030;SDS011;16122;50.236;11.734;2023-12-20T03:41:39;0.90;;;0.70;;
29030;SDS011;16122;50.236;11.734;2023-12-20T03:44:05;0.77;;;0.77;;
29030;SDS011;16122;50.236;11.734;2023-12-20T03:46:31;0.70;;;0.70;;
29030;SDS011;16122;50.236;11.734;2023-12-20T03:48:57;0.70;;;0.70;;
29030;SDS011;16122;50.236;11.734;2023-12-20T03:51:23;0.60;;;0.60;;
29030;SDS011;16122;50.236;11.734;2023-12-20T03:53:50;0.60;;;0.50;;
29030;SDS011;16122;50.236;11.734;2023-12-20T03:56:16;0.70;;;0.70;;
29030;SDS011;16122;50.236;11.734;2023-12-20T03:58:42;0.60;;;0.60;;
29030;SDS011;16122;50.236;11.734;2023-12-20T04:01:11;0.70;;;0.70;;
29030;SDS011;16122;50.236;11.734;2023-12-20T04:03:39;0.73;;;0.70;;
29030;SDS011;16122;50.236;11.734;2023-12-20T04:06:05;0.87;;;0.60;;
29030;SDS011;16122;50.236;11.734;2023-12-20T04:08:31;0.70;;;0.60;;
29030;SDS011;16122;50.236;11.734;2023-12-20T04:10:57;0.50;;;0.50;;
29030;SDS011;16122;50.236;11.734;2023-12-20T04:13:23;0.90;;;0.60;;
29030;SDS011;16122;50.236;11.734;2023-12-20T04:15:48;0.60;;;0.60;;
29030;SDS011;16122;50.236;11.734;2023-12-20T04:18:16;1.30;;;0.70;;
29030;SDS011;16122;50.236;11.734;2023-12-20T04:20:41;0.70;;;0.70;;
29030;SDS011;16122;50.236;11.734;2023-12-20T04:23:07;0.67;;;0.67;;
29030;SDS011;16122;50.236;11.734;2023-12-20T04:25:33;0.70;;;0.70;;
29030;SDS011;16122;50.236;11.734;2023-12-20T04:27:59;0.67;;;0.67;;
29030;SDS011;16122;50.236;11.734;2023-12-20T04:30:24;0.60;;;0.60;;
29030;SDS011;16122;50.236;11.734;2023-12-20T04:32:50;0.70;;;0.60;;
29030;SDS011;16122;50.236;11.734;2023-12-20T04:35:16;0.60;;;0.53;;
29030;SDS011;16122;50.236;11.734;2023-12-20T04:37:42;0.70;;;0.70;;
29030;SDS011;16122;50.236;11.734;2023-12-20T04:40:07;0.83;;;0.83;;
29030;SDS011;16122;50.236;11.734;2023-12-20T04:42:33;0.60;;;0.60;;
29030;SDS011;16122;50.236;11.734;2023-12-20T04:44:59;0.70;;;0.70;;
29030;SDS011;16122;50.236;11.734;2023-12-20T04:47:25;0.60;;;0.60;;
29030;SDS011;16122;50.236;11.734;2023-12-20T04:49:51;0.50;;;0.50;;
29030;SDS011;16122;50.236;11.734;2023-12-20T04:52:16;0.70;;;0.60;;
29030;SDS011;16122;50.236;11.734;2023-12-20T04:54:42;0.80;;;0.70;;
29030;SDS011;16122;50.236;11.734;2023-12-20T04:57:08;0.60;;;0.60;;
29030;SDS011;16122;50.236;11.734;2023-12-20T04:59:34;0.50;;;0.47;;
29030;SDS011;16122;50.236;11.734;2023-12-20T05:01:59;0.50;;;0.50;;
29030;SDS011;16122;50.236;11.734;2023-12-20T05:04:25;0.50;;;0.50;;
29030;SDS011;16122;50.236;11.734;2023-12-20T05:06:51;0.60;;;0.60;;
29030;SDS011;16122;50.236;11.734;2023-12-20T05:09:17;0.70;;;0.63;;
29030;SDS011;16122;50.236;11.734;2023-12-20T05:11:42;0.57;;;0.53;;
29030;SDS011;16122;50.236;11.734;2023-12-20T05:14:08;0.67;;;0.50;;
29030;SDS011;16122;50.236;11.734;2023-12-20T05:16:34;0.70;;;0.70;;
29030;SDS011;16122;50.236;11.734;2023-12-20T05:19:00;0.57;;;0.53;;
29030;SDS011;16122;50.236;11.734;2023-12-20T05:21:27;3.23;;;0.70;;
29030;SDS011;16122;50.236;11.734;2023-12-20T05:23:53;1.57;;;0.70;;
29030;SDS011;16122;50.236;11.734;2023-12-20T05:26:18;0.60;;;0.53;;
29030;SDS011;16122;50.236;11.734;2023-12-20T05:28:44;2.33;;;0.90;;
29030;SDS011;16122;50.236;11.734;2023-12-20T05:31:10;0.90;;;0.60;;
29030;SDS011;16122;50.236;11.734;2023-12-20T05:33:35;4.57;;;0.63;;
29030;SDS011;16122;50.236;11.734;2023-12-20T05:36:02;1.90;;;0.50;;
29030;SDS011;16122;50.236;11.734;2023-12-20T05:38:28;1.23;;;0.70;;
29030;SDS011;16122;50.236;11.734;2023-12-20T05:40:54;0.70;;;0.60;;
29030;SDS011;16122;50.236;11.734;2023-12-20T05:43:19;1.97;;;0.60;;
29030;SDS011;16122;50.236;11.734;2023-12-20T05:45:45;2.83;;;0.60;;
29030;SDS011;16122;50.236;11.734;2023-12-20T05:48:11;0.80;;;0.60;;
29030;SDS011;16122;50.236;11.734;2023-12-20T05:50:37;0.77;;;0.70;;
29030;SDS011;16122;50.236;11.734;2023-12-20T05:53:02;1.13;;;0.70;;
29030;SDS011;16122;50.236;11.734;2023-12-20T05:55:28;0.90;;;0.60;;
29030;SDS011;16122;50.236;11.734;2023-12-20T05:57:54;1.10;;;0.70;;
29030;SDS011;16122;50.236;11.734;2023-12-20T06:00:20;2.50;;;0.80;;
29030;SDS011;16122;50.236;11.734;2023-12-20T06:02:46;2.07;;;0.63;;
29030;SDS011;16122;50.236;11.734;2023-12-20T06:05:11;1.37;;;0.60;;
29030;SDS011;16122;50.236;11.734;2023-12-20T06:07:37;1.10;;;0.80;;
29030;SDS011;16122;50.236;11.734;2023-12-20T06:10:03;0.87;;;0.70;;
29030;SDS011;16122;50.236;11.734;2023-12-20T06:12:31;0.70;;;0.60;;
29030;SDS011;16122;50.236;11.734;2023-12-20T06:14:58;0.80;;;0.70;;
29030;SDS011;16122;50.236;11.734;2023-12-20T06:17:24;1.50;;;0.70;;
29030;SDS011;16122;50.236;11.734;2023-12-20T06:19:50;1.00;;;0.70;;
29030;SDS011;16122;50.236;11.734;2023-12-20T06:22:15;1.10;;;0.80;;
29030;SDS011;16122;50.236;11.734;2023-12-20T06:24:41;1.17;;;0.70;;
29030;SDS011;16122;50.236;11.734;2023-12-20T06:27:07;1.23;;;0.63;;
29030;SDS011;16122;50.236;11.734;2023-12-20T06:29:33;2.00;;;0.80;;
29030;SDS011;16122;50.236;11.734;2023-12-20T06:31:59;0.70;;;0.70;;
29030;SDS011;16122;50.236;11.734;2023-12-20T06:34:25;1.70;;;0.70;;
29030;SDS011;16122;50.236;11.734;2023-12-20T06:36:51;5.23;;;0.80;;
29030;SDS011;16122;50.236;11.734;2023-12-20T06:39:17;1.13;;;0.70;;
29030;SDS011;16122;50.236;11.734;2023-12-20T06:41:42;0.80;;;0.60;;
29030;SDS011;16122;50.236;11.734;2023-12-20T06:44:08;0.90;;;0.70;;
29030;SDS011;16122;50.236;11.734;2023-12-20T06:46:34;0.77;;;0.60;;
29030;SDS011;16122;50.236;11.734;2023-12-20T06:49:00;0.70;;;0.60;;
29030;SDS011;16122;50.236;11.734;2023-12-20T06:51:26;2.07;;;0.70;;
29030;SDS011;16122;50.236;11.734;2023-12-20T06:53:52;0.70;;;0.57;;
29030;SDS011;16122;50.236;11.734;2023-12-20T06:56:18;0.57;;;0.57;;
29030;SDS011;16122;50.236;11.734;2023-12-20T06:58:44;0.70;;;0.70;;
29030;SDS011;16122;50.236;11.734;2023-12-20T07:01:13;0.70;;;0.60;;
29030;SDS011;16122;50.236;11.734;2023-12-20T07:03:40;0.80;;;0.70;;
29030;SDS011;16122;50.236;11.734;2023-12-20T07:06:06;0.50;;;0.50;;
29030;SDS011;16122;50.236;11.734;2023-12-20T07:08:33;0.60;;;0.50;;
29030;SDS011;16122;50.236;11.734;2023-12-20T07:10:58;0.93;;;0.60;;
29030;SDS011;16122;50.236;11.734;2023-12-20T07:13:24;0.90;;;0.60;;
29030;SDS011;16122;50.236;11.734;2023-12-20T07:15:50;0.70;;;0.60;;
29030;SDS011;16122;50.236;11.734;2023-12-20T07:18:16;0.77;;;0.60;;
29030;SDS011;16122;50.236;11.734;2023-12-20T07:20:42;0.70;;;0.67;;
29030;SDS011;16122;50.236;11.734;2023-12-20T07:23:08;1.30;;;0.70;;
29030;SDS011;16122;50.236;11.734;2023-12-20T07:25:34;0.70;;;0.60;;
29030;SDS011;16122;50.236;11.734;2023-12-20T07:28:00;0.60;;;0.60;;
29030;SDS011;16122;50.236;11.734;2023-12-20T07:30:25;1.80;;;0.50;;
29030;SDS011;16122;50.236;11.734;2023-12-20T07:32:51;0.60;;;0.50;;
29030;SDS011;16122;50.236;11.734;2023-12-20T07:35:18;1.33;;;0.60;;
29030;SDS011;16122;50.236;11.734;2023-12-20T07:37:43;0.80;;;0.60;;
29030;SDS011;16122;50.236;11.734;2023-12-20T07:40:09;2.40;;;0.67;;
29030;SDS011;16122;50.236;11.734;2023-12-20T07:42:35;0.70;;;0.70;;
29030;SDS011;16122;50.236;11.734;2023-12-20T07:45:01;1.77;;;0.77;;
29030;SDS011;16122;50.236;11.734;2023-12-20T07:47:27;0.70;;;0.70;;
29030;SDS011;16122;50.236;11.734;2023-12-20T07:49:53;0.60;;;0.60;;
29030;SDS011;16122;50.236;11.734;2023-12-20T07:52:19;0.60;;;0.60;;
29030;SDS011;16122;50.236;11.734;2023-12-20T07:54:45;0.70;;;0.63;;
29030;SDS011;16122;50.236;11.734;2023-12-20T07:57:11;0.90;;;0.60;;
29030;SDS011;16122;50.236;11.734;2023-12-20T07:59:37;1.93;;;0.80;;
29030;SDS011;16122;50.236;11.734;2023-12-20T08:02:03;1.40;;;0.70;;
29030;SDS011;16122;50.236;11.734;2023-12-20T08:04:29;0.60;;;0.60;;
29030;SDS011;16122;50.236;11.734;2023-12-20T08:06:55;0.60;;;0.50;;
29030;SDS011;16122;50.236;11.734;2023-12-20T08:09:21;0.60;;;0.60;;
29030;SDS011;16122;50.236;11.734;2023-12-20T08:11:47;0.70;;;0.60;;
29030;SDS011;16122;50.236;11.734;2023-12-20T08:14:13;0.50;;;0.50;;
29030;SDS011;16122;50.236;11.734;2023-12-20T08:16:39;1.27;;;0.70;;
29030;SDS011;16122;50.236;11.734;2023-12-20T08:19:05;4.67;;;0.70;;
29030;SDS011;16122;50.236;11.734;2023-12-20T08:21:31;0.70;;;0.70;;
29030;SDS011;16122;50.236;11.734;2023-12-20T08:23:56;0.60;;;0.60;;
29030;SDS011;16122;50.236;11.734;2023-12-20T08:26:22;2.13;;;0.83;;
29030;SDS011;16122;50.236;11.734;2023-12-20T08:28:49;0.70;;;0.63;;
29030;SDS011;16122;50.236;11.734;2023-12-20T08:31:16;0.73;;;0.60;;
29030;SDS011;16122;50.236;11.734;2023-12-20T08:33:43;2.30;;;0.63;;
29030;SDS011;16122;50.236;11.734;2023-12-20T08:36:10;0.67;;;0.67;;
29030;SDS011;16122;50.236;11.734;2023-12-20T08:38:35;2.50;;;0.83;;
29030;SDS011;16122;50.236;11.734;2023-12-20T08:41:01;2.00;;;0.70;;
29030;SDS011;16122;50.236;11.734;2023-12-20T08:43:30;1.00;;;0.70;;
29030;SDS011;16122;50.236;11.734;2023-12-20T08:45:57;0.70;;;0.60;;
29030;SDS011;16122;50.236;11.734;2023-12-20T08:48:22;0.70;;;0.53;;
29030;SDS011;16122;50.236;11.734;2023-12-20T08:50:48;1.53;;;0.77;;
29030;SDS011;16122;50.236;11.734;2023-12-20T08:53:15;0.70;;;0.60;;
29030;SDS011;16122;50.236;11.734;2023-12-20T08:55:42;1.00;;;0.80;;
29030;SDS011;16122;50.236;11.734;2023-12-20T08:58:08;0.70;;;0.63;;
29030;SDS011;16122;50.236;11.734;2023-12-20T09:00:34;0.90;;;0.70;;
29030;SDS011;16122;50.236;11.734;2023-12-20T09:03:00;0.70;;;0.70;;
29030;SDS011;16122;50.236;11.734;2023-12-20T09:05:27;0.80;;;0.77;;
29030;SDS011;16122;50.236;11.734;2023-12-20T09:07:53;0.80;;;0.70;;
29030;SDS011;16122;50.236;11.734;2023-12-20T09:10:18;0.80;;;0.70;;
29030;SDS011;16122;50.236;11.734;2023-12-20T09:12:47;1.10;;;0.90;;
29030;SDS011;16122;50.236;11.734;2023-12-20T09:15:14;1.00;;;0.73;;
29030;SDS011;16122;50.236;11.734;2023-12-20T09:17:40;1.10;;;0.90;;
29030;SDS011;16122;50.236;11.734;2023-12-20T09:20:07;0.83;;;0.70;;
29030;SDS011;16122;50.236;11.734;2023-12-20T09:22:33;0.80;;;0.80;;
29030;SDS011;16122;50.236;11.734;2023-12-20T09:24:59;0.73;;;0.63;;
29030;SDS011;16122;50.236;11.734;2023-12-20T09:27:27;1.30;;;0.80;;
29030;SDS011;16122;50.236;11.734;2023-12-20T09:29:52;2.37;;;0.70;;
29030;SDS011;16122;50.236;11.734;2023-12-20T09:32:19;1.80;;;0.90;;
29030;SDS011;16122;50.236;11.734;2023-12-20T09:34:47;1.00;;;0.90;;
29030;SDS011;16122;50.236;11.734;2023-12-20T09:37:13;1.43;;;0.77;;
29030;SDS011;16122;50.236;11.734;2023-12-20T09:39:39;2.13;;;0.70;;
29030;SDS011;16122;50.236;11.734;2023-12-20T09:42:05;1.00;;;0.90;;
29030;SDS011;16122;50.236;11.734;2023-12-20T09:44:32;1.10;;;0.70;;
29030;SDS011;16122;50.236;11.734;2023-12-20T09:47:01;1.30;;;0.80;;
29030;SDS011;16122;50.236;11.734;2023-12-20T09:49:28;2.10;;;1.10;;
29030;SDS011;16122;50.236;11.734;2023-12-20T09:51:55;1.47;;;0.90;;
29030;SDS011;16122;50.236;11.734;2023-12-20T09:54:22;0.93;;;0.87;;
29030;SDS011;16122;50.236;11.734;2023-12-20T09:56:49;2.20;;;0.70;;
29030;SDS011;16122;50.236;11.734;2023-12-20T09:59:15;0.97;;;0.87;;
29030;SDS011;16122;50.236;11.734;2023-12-20T10:01:41;0.70;;;0.70;;
29030;SDS011;16122;50.236;11.734;2023-12-20T10:04:09;0.77;;;0.73;;
29030;SDS011;16122;50.236;11.734;2023-12-20T10:06:46;1.20;;;0.80;;
29030;SDS011;16122;50.236;11.734;2023-12-20T10:09:13;1.77;;;0.77;;
29030;SDS011;16122;50.236;11.734;2023-12-20T10:11:39;1.00;;;0.80;;
29030;SDS011;16122;50.236;11.734;2023-12-20T10:14:06;0.73;;;0.73;;
29030;SDS011;16122;50.236;11.734;2023-12-20T10:16:32;9.70;;;1.07;;
29030;SDS011;16122;50.236;11.734;2023-12-20T10:18:59;1.23;;;1.00;;
29030;SDS011;16122;50.236;11.734;2023-12-20T10:21:26;1.20;;;0.80;;
29030;SDS011;16122;50.236;11.734;2023-12-20T10:23:53;0.70;;;0.70;;
29030;SDS011;16122;50.236;11.734;2023-12-20T10:26:20;2.00;;;0.90;;
29030;SDS011;16122;50.236;11.734;2023-12-20T10:28:54;1.37;;;0.70;;
29030;SDS011;16122;50.236;11.734;2023-12-20T10:31:33;1.53;;;0.80;;
29030;SDS011;16122;50.236;11.734;2023-12-20T10:34:02;0.87;;;0.70;;
29030;SDS011;16122;50.236;11.734;2023-12-20T10:36:29;1.00;;;0.67;;
29030;SDS011;16122;50.236;11.734;2023-12-20T10:38:57;0.80;;;0.70;;
29030;SDS011;16122;50.236;11.734;2023-12-20T10:41:27;2.90;;;1.10;;
29030;SDS011;16122;50.236;11.734;2023-12-20T10:44:03;1.90;;;0.80;;
29030;SDS011;16122;50.236;11.734;2023-12-20T10:46:33;1.10;;;0.80;;
29030;SDS011;16122;50.236;11.734;2023-12-20T10:48:59;1.60;;;0.93;;
29030;SDS011;16122;50.236;11.734;2023-12-20T10:51:27;1.87;;;0.90;;
29030;SDS011;16122;50.236;11.734;2023-12-20T10:53:55;0.90;;;0.90;;
29030;SDS011;16122;50.236;11.734;2023-12-20T10:56:21;2.70;;;1.33;;
29030;SDS011;16122;50.236;11.734;2023-12-20T10:58:49;2.00;;;1.00;;
29030;SDS011;16122;50.236;11.734;2023-12-20T11:01:15;1.67;;;0.80;;
29030;SDS011;16122;50.236;11.734;2023-12-20T11:03:49;1.40;;;0.80;;
29030;SDS011;16122;50.236;11.734;2023-12-20T11:09:24;2.50;;;1.00;;
29030;SDS011;16122;50.236;11.734;2023-12-20T11:12:25;2.80;;;1.00;;
29030;SDS011;16122;50.236;11.734;2023-12-20T11:14:57;1.03;;;0.93;;
29030;SDS011;16122;50.236;11.734;2023-12-20T11:17:28;0.80;;;0.77;;
29030;SDS011;16122;50.236;11.734;2023-12-20T11:22:24;1.67;;;1.30;;
29030;SDS011;16122;50.236;11.734;2023-12-20T11:24:51;2.60;;;0.93;;
29030;SDS011;16122;50.236;11.734;2023-12-20T11:27:18;0.90;;;0.80;;
29030;SDS011;16122;50.236;11.734;2023-12-20T11:29:51;1.47;;;1.00;;
29030;SDS011;16122;50.236;11.734;2023-12-20T11:34:51;4.07;;;1.23;;
29030;SDS011;16122;50.236;11.734;2023-12-20T11:37:19;1.60;;;1.13;;
29030;SDS011;16122;50.236;11.734;2023-12-20T11:39:45;2.80;;;1.20;;
29030;SDS011;16122;50.236;11.734;2023-12-20T11:42:27;1.63;;;0.97;;
29030;SDS011;16122;50.236;11.734;2023-12-20T11:44:53;1.00;;;0.90;;
29030;SDS011;16122;50.236;11.734;2023-12-20T11:47:18;1.80;;;1.23;;
29030;SDS011;16122;50.236;11.734;2023-12-20T11:49:48;2.80;;;1.23;;
29030;SDS011;16122;50.236;11.734;2023-12-20T11:52:14;3.90;;;1.27;;
29030;SDS011;16122;50.236;11.734;2023-12-20T11:54:40;1.30;;;0.80;;
29030;SDS011;16122;50.236;11.734;2023-12-20T11:57:05;1.83;;;1.13;;
29030;SDS011;16122;50.236;11.734;2023-12-20T11:59:31;1.30;;;1.20;;
29030;SDS011;16122;50.236;11.734;2023-12-20T12:01:58;2.70;;;1.00;;
29030;SDS011;16122;50.236;11.734;2023-12-20T12:04:26;1.23;;;1.13;;
29030;SDS011;16122;50.236;11.734;2023-12-20T12:06:53;3.93;;;1.20;;
29030;SDS011;16122;50.236;11.734;2023-12-20T12:09:19;1.60;;;0.97;;
29030;SDS011;16122;50.236;11.734;2023-12-20T12:11:45;1.60;;;1.20;;
29030;SDS011;16122;50.236;11.734;2023-12-20T12:14:11;2.00;;;1.30;;
29030;SDS011;16122;50.236;11.734;2023-12-20T12:16:37;1.10;;;1.00;;
29030;SDS011;16122;50.236;11.734;2023-12-20T12:19:03;1.40;;;1.03;;
29030;SDS011;16122;50.236;11.734;2023-12-20T12:21:29;2.60;;;1.03;;
29030;SDS011;16122;50.236;11.734;2023-12-20T12:24:06;1.33;;;1.10;;
29030;SDS011;16122;50.236;11.734;2023-12-20T12:26:32;1.17;;;1.10;;
29030;SDS011;16122;50.236;11.734;2023-12-20T12:28:58;2.90;;;1.00;;
29030;SDS011;16122;50.236;11.734;2023-12-20T12:31:23;1.97;;;1.07;;
29030;SDS011;16122;50.236;11.734;2023-12-20T12:33:51;1.13;;;0.90;;
29030;SDS011;16122;50.236;11.734;2023-12-20T12:36:17;1.10;;;0.90;;
29030;SDS011;16122;50.236;11.734;2023-12-20T12:38:43;1.17;;;0.90;;
29030;SDS011;16122;50.236;11.734;2023-12-20T12:41:09;1.43;;;0.90;;
29030;SDS011;16122;50.236;11.734;2023-12-20T12:43:37;0.97;;;0.90;;
29030;SDS011;16122;50.236;11.734;2023-12-20T12:46:03;1.40;;;1.00;;
29030;SDS011;16122;50.236;11.734;2023-12-20T12:48:29;2.17;;;1.03;;
29030;SDS011;16122;50.236;11.734;2023-12-20T12:50:55;1.60;;;1.10;;
29030;SDS011;16122;50.236;11.734;2023-12-20T12:53:25;1.80;;;1.20;;
29030;SDS011;16122;50.236;11.734;2023-12-20T12:55:52;1.73;;;1.20;;
29030;SDS011;16122;50.236;11.734;2023-12-20T12:58:18;1.70;;;1.20;;
29030;SDS011;16122;50.236;11.734;2023-12-20T13:00:44;1.80;;;1.10;;
29030;SDS011;16122;50.236;11.734;2023-12-20T13:03:10;2.93;;;1.23;;
29030;SDS011;16122;50.236;11.734;2023-12-20T13:05:36;1.20;;;1.10;;
29030;SDS011;16122;50.236;11.734;2023-12-20T13:08:02;2.43;;;1.10;;
29030;SDS011;16122;50.236;11.734;2023-12-20T13:10:28;1.30;;;0.90;;
29030;SDS011;16122;50.236;11.734;2023-12-20T13:12:54;1.10;;;1.00;;
29030;SDS011;16122;50.236;11.734;2023-12-20T13:15:20;1.53;;;0.90;;
29030;SDS011;16122;50.236;11.734;2023-12-20T13:17:46;3.27;;;1.13;;
29030;SDS011;16122;50.236;11.734;2023-12-20T13:20:11;1.03;;;0.93;;
29030;SDS011;16122;50.236;11.734;2023-12-20T13:22:37;3.00;;;1.10;;
29030;SDS011;16122;50.236;11.734;2023-12-20T13:25:03;1.37;;;1.20;;
29030;SDS011;16122;50.236;11.734;2023-12-20T13:27:29;1.53;;;1.00;;
29030;SDS011;16122;50.236;11.734;2023-12-20T13:29:55;2.37;;;1.23;;
29030;SDS011;16122;50.236;11.734;2023-12-20T13:32:21;1.20;;;1.10;;
29030;SDS011;16122;50.236;11.734;2023-12-20T13:34:46;1.17;;;1.07;;
29030;SDS011;16122;50.236;11.734;2023-12-20T13:37:12;1.23;;;0.90;;
29030;SDS011;16122;50.236;11.734;2023-12-20T13:39:39;1.63;;;1.10;;
29030;SDS011;16122;50.236;11.734;2023-12-20T13:42:06;1.17;;;0.90;;
29030;SDS011;16122;50.236;11.734;2023-12-20T13:44:32;1.63;;;1.03;;
29030;SDS011;16122;50.236;11.734;2023-12-20T13:46:57;2.47;;;1.10;;
29030;SDS011;16122;50.236;11.734;2023-12-20T13:49:23;1.50;;;0.80;;
29030;SDS011;16122;50.236;11.734;2023-12-20T13:51:50;1.67;;;1.00;;
29030;SDS011;16122;50.236;11.734;2023-12-20T13:54:16;1.63;;;1.00;;
29030;SDS011;16122;50.236;11.734;2023-12-20T13:56:45;0.93;;;0.93;;
29030;SDS011;16122;50.236;11.734;2023-12-20T13:59:11;1.83;;;1.03;;
29030;SDS011;16122;50.236;11.734;2023-12-20T14:01:38;1.50;;;1.00;;
29030;SDS011;16122;50.236;11.734;2023-12-20T14:04:03;3.00;;;1.30;;
29030;SDS011;16122;50.236;11.734;2023-12-20T14:06:29;2.03;;;1.07;;
29030;SDS011;16122;50.236;11.734;2023-12-20T14:08:55;1.70;;;1.10;;
29030;SDS011;16122;50.236;11.734;2023-12-20T14:11:21;1.07;;;0.83;;
29030;SDS011;16122;50.236;11.734;2023-12-20T14:13:47;1.43;;;0.90;;
29030;SDS011;16122;50.236;11.734;2023-12-20T14:16:12;2.83;;;0.93;;
29030;SDS011;16122;50.236;11.734;2023-12-20T14:18:39;1.80;;;1.10;;
29030;SDS011;16122;50.236;11.734;2023-12-20T14:21:05;1.07;;;0.80;;
29030;SDS011;16122;50.236;11.734;2023-12-20T14:23:32;1.27;;;1.17;;
29030;SDS011;16122;50.236;11.734;2023-12-20T14:25:58;1.53;;;1.03;;
29030;SDS011;16122;50.236;11.734;2023-12-20T14:28:25;0.80;;;0.80;;
29030;SDS011;16122;50.236;11.734;2023-12-20T14:30:51;1.80;;;1.30;;
29030;SDS011;16122;50.236;11.734;2023-12-20T14:33:16;2.27;;;1.40;;
29030;SDS011;16122;50.236;11.734;2023-12-20T14:35:44;0.93;;;0.90;;
29030;SDS011;16122;50.236;11.734;2023-12-20T14:38:12;2.43;;;0.90;;